createdAt,value
2022-10-18T00:00:38.960Z,97919.56
2022-10-18T00:01:40.749Z,97920.38
2022-10-18T00:02:42.689Z,97918.94
2022-10-18T00:03:44.477Z,97919.13
2022-10-18T00:04:46.904Z,97917.88
2022-10-18T00:05:49.445Z,97924.94
2022-10-18T00:06:51.272Z,97919.69
2022-10-18T00:07:53.159Z,97918.28
2022-10-18T00:08:55.019Z,97919.25
2022-10-18T00:09:56.799Z,97920.25
2022-10-18T00:10:58.596Z,97917.00
2022-10-18T00:12:00.989Z,97913.75
2022-10-18T00:13:02.795Z,97923.25
2022-10-18T00:14:04.932Z,97919.63
2022-10-18T00:15:07.694Z,97919.84
2022-10-18T00:16:14.267Z,97919.41
2022-10-18T00:17:16.105Z,97914.16
2022-10-18T00:18:18.352Z,97916.97
2022-10-18T00:19:20.130Z,97911.53
2022-10-18T00:20:21.947Z,97908.94
2022-10-18T00:21:24.564Z,97911.53
2022-10-18T00:22:26.406Z,97916.59
2022-10-18T00:23:28.905Z,97903.50
2022-10-18T00:24:30.677Z,97911.97
2022-10-18T00:25:32.437Z,97914.59
2022-10-18T00:26:34.198Z,97910.16
2022-10-18T00:27:36.198Z,97916.38
2022-10-18T00:28:39.515Z,97918.19
2022-10-18T00:29:41.309Z,97906.94
2022-10-18T00:30:43.157Z,97909.72
2022-10-18T00:31:45.472Z,97905.25
2022-10-18T00:32:47.322Z,97910.03
2022-10-18T00:33:53.530Z,97908.44
2022-10-18T00:34:55.325Z,97906.81
2022-10-18T00:36:00.401Z,97907.00
2022-10-18T00:37:02.196Z,97901.78
2022-10-18T00:38:04.028Z,97902.56
2022-10-18T00:39:07.248Z,97900.94
2022-10-18T00:40:09.293Z,97906.94
2022-10-18T00:41:12.298Z,97901.06
2022-10-18T00:42:17.096Z,97905.69
2022-10-18T00:43:19.039Z,97900.22
2022-10-18T00:44:26.637Z,97901.19
2022-10-18T00:45:28.491Z,97903.44
2022-10-18T00:46:31.885Z,97903.44
2022-10-18T00:47:35.050Z,97903.63
2022-10-18T00:48:36.804Z,97908.69
2022-10-18T00:49:44.162Z,97906.69
2022-10-18T00:50:47.383Z,97906.31
2022-10-18T00:51:56.918Z,97904.69
2022-10-18T00:53:01.824Z,97901.28
2022-10-18T00:54:03.849Z,97899.66
2022-10-18T00:55:06.738Z,97903.44
2022-10-18T00:56:08.574Z,97897.38
2022-10-18T00:57:10.763Z,97905.22
2022-10-18T00:58:14.118Z,97906.69
2022-10-18T00:59:17.622Z,97903.25
2022-10-18T01:00:19.878Z,97899.66
2022-10-18T01:01:24.462Z,97897.22
2022-10-18T01:02:29.685Z,97895.78
2022-10-18T01:03:32.003Z,97897.59
2022-10-18T01:04:33.912Z,97895.97
2022-10-18T01:05:41.910Z,97896.53
2022-10-18T01:08:21.094Z,97891.66
2022-10-18T01:09:48.905Z,97893.28
2022-10-18T01:11:14.015Z,97886.25
2022-10-18T01:12:38.890Z,97887.66
2022-10-18T01:13:48.280Z,97888.50
2022-10-18T01:15:02.195Z,97887.50
2022-10-18T01:16:11.078Z,97893.34
2022-10-18T01:17:20.135Z,97889.75
2022-10-18T01:18:21.838Z,97882.69
2022-10-18T01:19:23.537Z,97890.72
2022-10-18T01:20:34.718Z,97890.09
2022-10-18T01:21:43.112Z,97890.28
2022-10-18T01:23:00.619Z,97893.91
2022-10-18T01:24:14.537Z,97891.28
2022-10-18T01:25:39.824Z,97892.09
2022-10-18T01:27:00.051Z,97889.88
2022-10-18T01:28:19.944Z,97883.81
2022-10-18T01:29:40.233Z,97890.22
2022-10-18T01:31:00.564Z,97888.00
2022-10-18T01:32:07.997Z,97894.59
2022-10-18T01:33:09.781Z,97885.94
2022-10-18T01:34:13.263Z,97897.84
2022-10-18T01:35:18.319Z,97894.59
2022-10-18T01:36:26.329Z,97887.91
2022-10-18T01:37:29.646Z,97885.47
2022-10-18T01:38:33.072Z,97890.72
2022-10-18T01:39:37.172Z,97898.56
2022-10-18T01:40:41.397Z,97888.44
2022-10-18T01:41:44.832Z,97886.63
2022-10-18T01:42:47.848Z,97889.06
2022-10-18T01:43:52.243Z,97892.69
2022-10-18T01:44:55.155Z,97886.84
2022-10-18T01:45:58.410Z,97891.44
2022-10-18T01:47:00.856Z,97887.81
2022-10-18T01:48:03.385Z,97891.06
2022-10-18T01:49:05.390Z,97883.03
2022-10-18T01:50:07.453Z,97883.84
2022-10-18T01:51:09.293Z,97892.34
2022-10-18T01:52:15.128Z,97889.06
2022-10-18T01:53:24.452Z,97889.06
2022-10-18T01:54:37.830Z,97892.50
2022-10-18T01:55:39.512Z,97893.31
2022-10-18T01:56:47.373Z,97890.72
2022-10-18T01:58:09.378Z,97893.50
2022-10-18T01:59:43.740Z,97889.25
2022-10-18T02:00:48.282Z,97891.06
2022-10-18T02:01:55.923Z,97893.69
2022-10-18T02:03:04.681Z,97895.50
2022-10-18T02:04:24.875Z,97893.06
2022-10-18T02:05:29.424Z,97897.31
2022-10-18T02:06:35.666Z,97887.81
2022-10-18T02:07:40.821Z,97893.41
2022-10-18T02:08:45.619Z,97897.03
2022-10-18T02:09:52.189Z,97899.03
2022-10-18T02:11:02.918Z,97897.78
2022-10-18T02:12:05.516Z,97903.00
2022-10-18T02:13:07.783Z,97896.97
2022-10-18T02:14:12.033Z,97897.16
2022-10-18T02:15:16.411Z,97891.91
2022-10-18T02:16:27.049Z,97892.91
2022-10-18T02:17:30.243Z,97899.13
2022-10-18T02:18:39.477Z,97897.31
2022-10-18T02:19:43.795Z,97900.94
2022-10-18T02:20:45.853Z,97892.91
2022-10-18T02:21:48.716Z,97892.09
2022-10-18T02:22:51.703Z,97904.19
2022-10-18T02:23:54.150Z,97899.31
2022-10-18T02:24:57.857Z,97897.88
2022-10-18T02:25:59.628Z,97898.69
2022-10-18T02:27:01.938Z,97898.06
2022-10-18T02:28:04.656Z,97900.84
2022-10-18T02:29:06.703Z,97907.88
2022-10-18T02:30:09.753Z,97906.28
2022-10-18T02:31:20.391Z,97909.69
2022-10-18T02:32:22.183Z,97896.63
2022-10-18T02:33:38.192Z,97904.09
2022-10-18T02:34:42.937Z,97901.47
2022-10-18T02:35:50.039Z,97900.66
2022-10-18T02:36:53.848Z,97899.69
2022-10-18T02:37:57.331Z,97901.28
2022-10-18T02:39:03.397Z,97899.50
2022-10-18T02:40:06.259Z,97903.09
2022-10-18T02:41:08.285Z,97912.75
2022-10-18T02:42:10.803Z,97911.31
2022-10-18T02:43:14.361Z,97915.91
2022-10-18T02:44:16.269Z,97912.50
2022-10-18T02:45:18.298Z,97909.25
2022-10-18T02:46:21.027Z,97913.66
2022-10-18T02:47:22.939Z,97916.13
2022-10-18T02:48:24.783Z,97920.31
2022-10-18T02:49:26.614Z,97923.56
2022-10-18T02:50:28.481Z,97914.75
2022-10-18T02:51:30.325Z,97918.16
2022-10-18T02:52:32.191Z,97911.94
2022-10-18T02:53:33.955Z,97914.53
2022-10-18T02:54:35.764Z,97917.16
2022-10-18T02:55:37.498Z,97917.16
2022-10-18T02:56:39.358Z,97915.56
2022-10-18T02:57:41.111Z,97914.13
2022-10-18T02:58:42.978Z,97920.97
2022-10-18T02:59:44.787Z,97911.84
2022-10-18T03:00:46.589Z,97919.69
2022-10-18T03:01:48.661Z,97922.31
2022-10-18T03:02:50.629Z,97915.28
2022-10-18T03:03:52.390Z,97914.47
2022-10-18T03:04:54.246Z,97914.47
2022-10-18T03:05:56.034Z,97914.66
2022-10-18T03:06:57.863Z,97909.81
2022-10-18T03:07:59.800Z,97911.63
2022-10-18T03:09:06.126Z,97909.00
2022-10-18T03:10:08.093Z,97909.81
2022-10-18T03:11:09.871Z,97916.63
2022-10-18T03:12:11.727Z,97908.56
2022-10-18T03:13:13.837Z,97916.75
2022-10-18T03:14:15.754Z,97909.53
2022-10-18T03:15:17.582Z,97909.53
2022-10-18T03:16:19.373Z,97907.91
2022-10-18T03:17:21.316Z,97911.16
2022-10-18T03:18:23.201Z,97910.16
2022-10-18T03:19:24.978Z,97909.19
2022-10-18T03:20:26.789Z,97904.94
2022-10-18T03:21:28.602Z,97910.31
2022-10-18T03:22:30.423Z,97908.56
2022-10-18T03:23:32.277Z,97913.59
2022-10-18T03:24:34.044Z,97910.78
2022-10-18T03:25:35.981Z,97910.59
2022-10-18T03:26:37.824Z,97907.63
2022-10-18T03:27:39.780Z,97912.66
2022-10-18T03:28:41.605Z,97910.06
2022-10-18T03:29:43.453Z,97918.09
2022-10-18T03:30:45.316Z,97917.88
2022-10-18T03:31:47.240Z,97922.13
2022-10-18T03:32:48.996Z,97916.28
2022-10-18T03:33:50.861Z,97926.13
2022-10-18T03:34:52.639Z,97921.25
2022-10-18T03:35:54.453Z,97917.00
2022-10-18T03:37:00.941Z,97922.25
2022-10-18T03:38:05.324Z,97921.97
2022-10-18T03:39:07.216Z,97921.34
2022-10-18T03:40:09.257Z,97922.97
2022-10-18T03:41:11.035Z,97923.16
2022-10-18T03:42:12.812Z,97925.59
2022-10-18T03:43:14.624Z,97925.59
2022-10-18T03:44:16.457Z,97918.72
2022-10-18T03:45:18.215Z,97929.19
2022-10-18T03:46:19.978Z,97922.34
2022-10-18T03:47:21.803Z,97926.72
2022-10-18T03:48:24.152Z,97928.53
2022-10-18T03:49:26.055Z,97921.50
2022-10-18T03:50:27.797Z,97927.56
2022-10-18T03:51:29.591Z,97927.84
2022-10-18T03:52:31.689Z,97923.78
2022-10-18T03:53:34.024Z,97922.63
2022-10-18T03:54:35.952Z,97930.28
2022-10-18T03:55:38.242Z,97926.66
2022-10-18T03:56:39.992Z,97917.84
2022-10-18T03:57:41.794Z,97921.09
2022-10-18T03:58:43.601Z,97917.47
2022-10-18T03:59:45.488Z,97922.88
2022-10-18T04:00:50.217Z,97926.31
2022-10-18T04:01:52.027Z,97925.31
2022-10-18T04:02:55.866Z,97928.72
2022-10-18T04:03:58.031Z,97928.53
2022-10-18T04:04:59.882Z,97924.31
2022-10-18T04:06:03.662Z,97929.56
2022-10-18T04:07:05.632Z,97926.09
2022-10-18T04:08:07.386Z,97923.50
2022-10-18T04:09:10.285Z,97925.94
2022-10-18T04:10:12.233Z,97921.50
2022-10-18T04:11:14.099Z,97923.31
2022-10-18T04:12:15.818Z,97925.13
2022-10-18T04:13:17.624Z,97929.56
2022-10-18T04:14:21.582Z,97922.69
2022-10-18T04:15:23.356Z,97929.91
2022-10-18T04:16:25.257Z,97934.31
2022-10-18T04:17:27.018Z,97933.53
2022-10-18T04:18:28.983Z,97935.50
2022-10-18T04:19:30.915Z,97939.72
2022-10-18T04:20:32.702Z,97942.34
2022-10-18T04:21:34.459Z,97941.53
2022-10-18T04:22:36.146Z,97944.16
2022-10-18T04:23:38.885Z,97938.28
2022-10-18T04:24:41.125Z,97940.28
2022-10-18T04:26:45.776Z,97939.81
2022-10-18T04:27:47.986Z,97938.00
2022-10-18T04:28:49.812Z,97941.47
2022-10-18T04:29:51.659Z,97938.84
2022-10-18T04:30:53.490Z,97934.41
2022-10-18T04:31:55.234Z,97930.81
2022-10-18T04:32:57.030Z,97939.47
2022-10-18T04:33:58.821Z,97937.84
2022-10-18T04:35:00.760Z,97935.41
2022-10-18T04:36:02.573Z,97938.84
2022-10-18T04:37:04.408Z,97939.19
2022-10-18T04:38:06.261Z,97933.34
2022-10-18T04:39:08.135Z,97941.78
2022-10-18T04:40:10.093Z,97937.59
2022-10-18T04:41:11.930Z,97936.31
2022-10-18T04:42:13.731Z,97940.09
2022-10-18T04:43:15.746Z,97934.06
2022-10-18T04:44:17.499Z,97941.09
2022-10-18T04:45:19.325Z,97935.69
2022-10-18T04:46:21.119Z,97938.94
2022-10-18T04:47:22.972Z,97935.31
2022-10-18T04:48:24.775Z,97941.00
2022-10-18T04:49:26.564Z,97933.34
2022-10-18T04:50:28.491Z,97933.78
2022-10-18T04:51:30.615Z,97935.59
2022-10-18T04:52:32.557Z,97928.72
2022-10-18T04:53:34.357Z,97937.38
2022-10-18T04:54:36.679Z,97937.59
2022-10-18T04:55:38.555Z,97935.13
2022-10-18T04:56:40.330Z,97935.94
2022-10-18T04:57:42.465Z,97938.56
2022-10-18T04:58:44.398Z,97935.78
2022-10-18T04:59:46.301Z,97928.72
2022-10-18T05:00:48.239Z,97933.78
2022-10-18T05:01:50.146Z,97940.63
2022-10-18T05:02:56.612Z,97933.97
2022-10-18T05:03:58.437Z,97935.13
2022-10-18T05:05:00.291Z,97925.50
2022-10-18T05:06:03.278Z,97933.34
2022-10-18T05:07:06.914Z,97936.94
2022-10-18T05:08:09.050Z,97930.09
2022-10-18T05:09:10.921Z,97936.94
2022-10-18T05:10:12.694Z,97927.47
2022-10-18T05:11:14.784Z,97925.88
2022-10-18T05:12:16.611Z,97932.06
2022-10-18T05:13:18.367Z,97925.03
2022-10-18T05:14:20.197Z,97927.47
2022-10-18T05:15:22.002Z,97922.44
2022-10-18T05:16:23.943Z,97922.69
2022-10-18T05:17:25.733Z,97925.28
2022-10-18T05:18:27.697Z,97915.47
2022-10-18T05:19:29.520Z,97924.78
2022-10-18T05:20:31.330Z,97915.75
2022-10-18T05:21:33.598Z,97921.63
2022-10-18T05:22:35.440Z,97922.25
2022-10-18T05:23:37.252Z,97924.53
2022-10-18T05:24:39.046Z,97918.66
2022-10-18T05:25:41.605Z,97921.28
2022-10-18T05:26:43.470Z,97916.06
2022-10-18T05:27:45.249Z,97924.53
2022-10-18T05:28:47.069Z,97926.13
2022-10-18T05:29:48.955Z,97931.97
2022-10-18T05:30:50.721Z,97922.72
2022-10-18T05:31:52.602Z,97918.66
2022-10-18T05:32:54.406Z,97919.63
2022-10-18T05:33:56.225Z,97918.03
2022-10-18T05:34:57.972Z,97924.88
2022-10-18T05:35:59.887Z,97927.47
2022-10-18T05:37:01.750Z,97918.84
2022-10-18T05:38:06.942Z,97928.09
2022-10-18T05:39:08.684Z,97933.16
2022-10-18T05:40:10.785Z,97926.13
2022-10-18T05:41:13.183Z,97924.31
2022-10-18T05:42:15.073Z,97926.13
2022-10-18T05:43:18.022Z,97933.97
2022-10-18T05:44:19.948Z,97930.38
2022-10-18T05:45:21.856Z,97925.16
2022-10-18T05:46:23.645Z,97922.34
2022-10-18T05:47:25.755Z,97923.16
2022-10-18T05:48:27.548Z,97918.28
2022-10-18T05:49:29.410Z,97927.31
2022-10-18T05:50:35.424Z,97919.19
2022-10-18T05:51:39.899Z,97919.34
2022-10-18T05:52:41.765Z,97923.44
2022-10-18T05:53:44.582Z,97922.44
2022-10-18T05:54:46.428Z,97926.50
2022-10-18T05:55:48.223Z,97916.06
2022-10-18T05:56:50.061Z,97924.13
2022-10-18T05:57:52.251Z,97922.16
2022-10-18T05:58:54.124Z,97922.97
2022-10-18T05:59:55.903Z,97918.75
2022-10-18T06:01:01.792Z,97919.72
2022-10-18T06:02:03.636Z,97922.97
2022-10-18T06:03:05.568Z,97915.97
2022-10-18T06:04:07.887Z,97921.81
2022-10-18T06:05:09.734Z,97912.63
2022-10-18T06:06:12.450Z,97918.47
2022-10-18T06:07:14.233Z,97913.88
2022-10-18T06:08:16.069Z,97917.84
2022-10-18T06:09:18.001Z,97916.03
2022-10-18T06:10:19.914Z,97917.47
2022-10-18T06:11:21.742Z,97910.63
2022-10-18T06:12:23.547Z,97915.66
2022-10-18T06:13:25.462Z,97918.09
2022-10-18T06:14:27.334Z,97916.50
2022-10-18T06:15:29.135Z,97911.88
2022-10-18T06:16:32.556Z,97915.47
2022-10-18T06:17:35.109Z,97915.47
2022-10-18T06:18:37.362Z,97916.75
2022-10-18T06:19:39.137Z,97919.97
2022-10-18T06:20:40.927Z,97912.75
2022-10-18T06:21:43.732Z,97913.41
2022-10-18T06:22:45.537Z,97911.63
2022-10-18T06:23:54.740Z,97916.84
2022-10-18T06:24:57.366Z,97910.44
2022-10-18T06:26:03.399Z,97910.06
2022-10-18T06:27:09.241Z,97911.31
2022-10-18T06:28:12.177Z,97912.94
2022-10-18T06:29:14.428Z,97918.16
2022-10-18T06:30:16.552Z,97905.72
2022-10-18T06:31:18.681Z,97903.72
2022-10-18T06:32:20.477Z,97908.16
2022-10-18T06:33:22.370Z,97907.72
2022-10-18T06:34:24.254Z,97914.94
2022-10-18T06:35:26.100Z,97900.84
2022-10-18T06:36:28.084Z,97910.69
2022-10-18T06:37:31.379Z,97903.22
2022-10-18T06:38:33.757Z,97910.88
2022-10-18T06:39:35.608Z,97913.75
2022-10-18T06:40:38.387Z,97912.31
2022-10-18T06:41:40.190Z,97911.31
2022-10-18T06:42:43.598Z,97911.31
2022-10-18T06:43:50.406Z,97915.56
2022-10-18T06:44:52.218Z,97904.72
2022-10-18T06:45:54.457Z,97907.16
2022-10-18T06:46:56.357Z,97906.19
2022-10-18T06:47:58.809Z,97910.03
2022-10-18T06:49:00.625Z,97909.84
2022-10-18T06:50:02.436Z,97904.59
2022-10-18T06:51:06.413Z,97905.63
2022-10-18T06:52:08.180Z,97907.16
2022-10-18T06:53:10.194Z,97906.34
2022-10-18T06:54:17.859Z,97904.19
2022-10-18T06:55:20.419Z,97907.84
2022-10-18T06:56:22.222Z,97910.03
2022-10-18T06:57:24.062Z,97903.00
2022-10-18T06:58:25.940Z,97908.06
2022-10-18T06:59:31.098Z,97910.28
2022-10-18T07:00:33.387Z,97903.88
2022-10-18T07:01:35.242Z,97913.34
2022-10-18T07:02:38.047Z,97911.34
2022-10-18T07:03:40.331Z,97911.81
2022-10-18T07:04:42.053Z,97916.03
2022-10-18T07:05:44.007Z,97910.47
2022-10-18T07:06:45.780Z,97912.06
2022-10-18T07:07:47.591Z,97911.91
2022-10-18T07:08:50.571Z,97909.09
2022-10-18T07:09:52.340Z,97911.53
2022-10-18T07:10:54.372Z,97916.56
2022-10-18T07:11:56.103Z,97912.97
2022-10-18T07:13:13.538Z,97908.53
2022-10-18T07:14:19.678Z,97910.19
2022-10-18T07:15:24.338Z,97915.41
2022-10-18T07:16:26.146Z,97907.75
2022-10-18T07:17:28.153Z,97912.97
2022-10-18T07:18:30.031Z,97911.16
2022-10-18T07:19:31.831Z,97901.50
2022-10-18T07:20:33.836Z,97900.69
2022-10-18T07:21:35.635Z,97901.31
2022-10-18T07:22:38.425Z,97903.75
2022-10-18T07:23:41.194Z,97897.50
2022-10-18T07:24:43.883Z,97902.22
2022-10-18T07:25:45.684Z,97907.06
2022-10-18T07:26:47.559Z,97899.81
2022-10-18T07:27:49.318Z,97899.47
2022-10-18T07:28:54.482Z,97905.50
2022-10-18T07:29:56.300Z,97907.56
2022-10-18T07:31:01.302Z,97900.94
2022-10-18T07:32:07.065Z,97903.63
2022-10-18T07:33:08.878Z,97901.06
2022-10-18T07:34:11.797Z,97907.16
2022-10-18T07:35:13.704Z,97902.19
2022-10-18T07:36:15.619Z,97901.41
2022-10-18T07:37:17.428Z,97897.41
2022-10-18T07:38:19.210Z,97900.28
2022-10-18T07:39:21.102Z,97900.53
2022-10-18T07:40:22.932Z,97898.16
2022-10-18T07:41:24.788Z,97903.59
2022-10-18T07:42:26.780Z,97900.84
2022-10-18T07:43:29.404Z,97903.72
2022-10-18T07:44:31.234Z,97904.16
2022-10-18T07:45:33.020Z,97907.16
2022-10-18T07:46:34.889Z,97906.03
2022-10-18T07:47:37.191Z,97915.22
2022-10-18T07:48:39.517Z,97912.91
2022-10-18T07:49:41.362Z,97916.38
2022-10-18T07:50:43.116Z,97916.22
2022-10-18T07:51:44.976Z,97905.72
2022-10-18T07:52:46.773Z,97912.00
2022-10-18T07:53:48.676Z,97911.84
2022-10-18T07:55:58.154Z,97913.84
2022-10-18T07:56:59.922Z,97914.47
2022-10-18T07:58:01.824Z,97905.78
2022-10-18T07:59:03.669Z,97907.00
2022-10-18T08:00:05.875Z,97904.19
2022-10-18T08:01:08.658Z,97910.25
2022-10-18T08:02:10.500Z,97907.44
2022-10-18T08:03:12.331Z,97901.38
2022-10-18T08:04:16.340Z,97899.38
2022-10-18T08:05:18.678Z,97898.94
2022-10-18T08:06:21.790Z,97900.16
2022-10-18T08:07:23.620Z,97898.56
2022-10-18T08:08:26.302Z,97901.59
2022-10-18T08:09:28.066Z,97898.97
2022-10-18T08:10:29.885Z,97896.78
2022-10-18T08:11:31.758Z,97894.53
2022-10-18T08:12:33.674Z,97894.94
2022-10-18T08:13:35.757Z,97897.19
2022-10-18T08:14:37.586Z,97885.25
2022-10-18T08:15:39.344Z,97891.91
2022-10-18T08:16:41.132Z,97895.75
2022-10-18T08:17:44.616Z,97894.75
2022-10-18T08:18:46.479Z,97893.38
2022-10-18T08:19:58.494Z,97890.31
2022-10-18T08:21:11.739Z,97887.91
2022-10-18T08:22:13.516Z,97888.91
2022-10-18T08:23:15.279Z,97891.13
2022-10-18T08:24:17.105Z,97885.88
2022-10-18T08:25:18.918Z,97883.06
2022-10-18T08:26:22.514Z,97883.22
2022-10-18T08:27:26.481Z,97885.47
2022-10-18T08:28:28.318Z,97880.22
2022-10-18T08:29:32.036Z,97883.44
2022-10-18T08:30:35.305Z,97892.94
2022-10-18T08:31:37.566Z,97881.38
2022-10-18T08:32:39.386Z,97883.63
2022-10-18T08:33:41.390Z,97877.13
2022-10-18T08:34:43.253Z,97872.88
2022-10-18T08:35:54.437Z,97877.72
2022-10-18T08:36:56.178Z,97870.81
2022-10-18T08:37:57.955Z,97876.28
2022-10-18T08:38:59.778Z,97880.31
2022-10-18T08:40:01.628Z,97878.09
2022-10-18T08:41:15.357Z,97874.03
2022-10-18T08:42:23.225Z,97871.38
2022-10-18T08:43:43.680Z,97882.28
2022-10-18T08:44:47.572Z,97869.72
2022-10-18T08:45:50.220Z,97878.97
2022-10-18T08:47:15.383Z,97873.13
2022-10-18T08:48:22.213Z,97876.72
2022-10-18T08:49:46.529Z,97869.00
2022-10-18T08:50:50.181Z,97868.00
2022-10-18T08:51:52.396Z,97867.56
2022-10-18T08:52:54.158Z,97872.19
2022-10-18T08:53:58.881Z,97866.88
2022-10-18T08:55:02.772Z,97861.44
2022-10-18T08:56:11.579Z,97865.84
2022-10-18T08:57:15.119Z,97871.06
2022-10-18T08:58:21.736Z,97866.75
2022-10-18T08:59:25.536Z,97871.38
2022-10-18T09:00:30.860Z,97862.84
2022-10-18T09:01:35.776Z,97869.88
2022-10-18T09:02:55.640Z,97859.53
2022-10-18T09:04:03.531Z,97852.34
2022-10-18T09:05:17.497Z,97855.00
2022-10-18T09:06:37.614Z,97859.19
2022-10-18T09:07:39.337Z,97863.38
2022-10-18T09:08:50.416Z,97867.00
2022-10-18T09:09:54.951Z,97858.81
2022-10-18T09:11:05.798Z,97859.56
2022-10-18T09:12:26.236Z,97860.91
2022-10-18T09:13:33.819Z,97859.81
2022-10-18T09:14:38.511Z,97861.81
2022-10-18T09:15:57.386Z,97863.78
2022-10-18T09:17:34.680Z,97857.41
2022-10-18T09:18:42.092Z,97867.91
2022-10-18T09:19:56.050Z,97860.91
2022-10-18T09:20:59.035Z,97856.16
2022-10-18T09:22:14.260Z,97856.97
2022-10-18T09:23:21.291Z,97861.16
2022-10-18T09:24:37.233Z,97855.78
2022-10-18T09:25:45.599Z,97858.31
2022-10-18T09:26:48.614Z,97857.81
2022-10-18T09:27:52.878Z,97852.88
2022-10-18T09:28:54.692Z,97845.34
2022-10-18T09:30:08.259Z,97852.34
2022-10-18T09:31:10.030Z,97847.56
2022-10-18T09:32:21.691Z,97841.97
2022-10-18T09:33:30.711Z,97847.53
2022-10-18T09:34:37.938Z,97840.75
2022-10-18T09:35:57.182Z,97840.88
2022-10-18T09:36:59.410Z,97842.41
2022-10-18T09:38:06.056Z,97846.53
2022-10-18T09:39:16.024Z,97840.09
2022-10-18T09:40:26.294Z,97833.47
2022-10-18T09:41:31.003Z,97835.88
2022-10-18T09:42:41.927Z,97833.34
2022-10-18T09:44:02.287Z,97838.97
2022-10-18T09:45:13.681Z,97831.41
2022-10-18T09:46:17.362Z,97844.28
2022-10-18T09:47:33.023Z,97852.53
2022-10-18T09:48:39.238Z,97841.28
2022-10-18T09:49:43.998Z,97845.69
2022-10-18T09:50:49.172Z,97843.13
2022-10-18T09:51:52.782Z,97845.66
2022-10-18T09:53:09.904Z,97845.75
2022-10-18T09:54:21.025Z,97847.81
2022-10-18T09:55:24.971Z,97845.88
2022-10-18T09:56:30.089Z,97841.72
2022-10-18T09:57:32.066Z,97844.44
2022-10-18T09:58:47.834Z,97846.97
2022-10-18T09:59:50.668Z,97840.28
2022-10-18T10:00:53.341Z,97847.38
2022-10-18T10:01:55.265Z,97841.38
2022-10-18T10:02:57.850Z,97840.09
2022-10-18T10:03:59.735Z,97835.13
2022-10-18T10:05:01.546Z,97834.91
2022-10-18T10:06:12.179Z,97830.16
2022-10-18T10:07:21.605Z,97823.59
2022-10-18T10:08:32.348Z,97824.53
2022-10-18T10:09:41.935Z,97820.59
2022-10-18T10:10:47.457Z,97819.72
2022-10-18T10:11:50.999Z,97819.91
2022-10-18T10:13:06.446Z,97827.47
2022-10-18T10:14:09.856Z,97820.63
2022-10-18T10:15:23.088Z,97823.91
2022-10-18T10:16:26.872Z,97822.72
2022-10-18T10:17:31.564Z,97820.63
2022-10-18T10:18:39.170Z,97816.69
2022-10-18T10:19:56.835Z,97815.41
2022-10-18T10:21:00.551Z,97814.34
2022-10-18T10:22:04.288Z,97809.94
2022-10-18T10:23:29.108Z,97811.38
2022-10-18T10:24:49.819Z,97813.13
2022-10-18T10:25:54.938Z,97815.88
2022-10-18T10:27:00.736Z,97820.44
2022-10-18T10:28:04.097Z,97816.34
2022-10-18T10:29:43.508Z,97809.56
2022-10-18T10:30:46.567Z,97804.88
2022-10-18T10:32:01.764Z,97806.25
2022-10-18T10:33:04.170Z,97811.88
2022-10-18T10:34:14.823Z,97803.91
2022-10-18T10:35:41.543Z,97803.66
2022-10-18T10:36:53.853Z,97802.84
2022-10-18T10:37:56.031Z,97805.00
2022-10-18T10:39:04.233Z,97804.81
2022-10-18T10:40:17.789Z,97803.81
2022-10-18T10:41:21.887Z,97801.00
2022-10-18T10:42:23.710Z,97806.66
2022-10-18T10:43:39.777Z,97807.53
2022-10-18T10:44:50.910Z,97805.44
2022-10-18T10:46:13.300Z,97802.25
2022-10-18T10:47:28.564Z,97798.09
2022-10-18T10:48:34.638Z,97800.81
2022-10-18T10:49:41.083Z,97794.81
2022-10-18T10:50:54.342Z,97795.38
2022-10-18T10:52:08.741Z,97788.78
2022-10-18T10:53:26.856Z,97788.28
2022-10-18T10:54:29.731Z,97793.59
2022-10-18T10:55:35.722Z,97787.78
2022-10-18T10:56:50.460Z,97786.22
2022-10-18T10:57:52.943Z,97787.88
2022-10-18T10:58:55.805Z,97784.19
2022-10-18T11:00:00.122Z,97781.25
2022-10-18T11:01:17.466Z,97780.84
2022-10-18T11:02:24.065Z,97784.31
2022-10-18T11:03:30.068Z,97774.28
2022-10-18T11:04:32.301Z,97773.78
2022-10-18T11:05:42.596Z,97772.25
2022-10-18T11:07:04.661Z,97769.13
2022-10-18T11:08:06.522Z,97759.06
2022-10-18T11:09:18.403Z,97760.69
2022-10-18T11:10:23.162Z,97754.59
2022-10-18T11:11:35.514Z,97761.78
2022-10-18T11:12:44.267Z,97756.22
2022-10-18T11:13:57.043Z,97758.13
2022-10-18T11:15:17.507Z,97756.03
2022-10-18T11:16:26.684Z,97751.78
2022-10-18T11:17:28.644Z,97749.41
2022-10-18T11:18:32.707Z,97756.59
2022-10-18T11:19:45.994Z,97748.91
2022-10-18T11:20:49.851Z,97748.41
2022-10-18T11:21:53.071Z,97750.78
2022-10-18T11:23:02.665Z,97747.13
2022-10-18T11:24:07.960Z,97747.66
2022-10-18T11:25:13.397Z,97745.53
2022-10-18T11:26:24.168Z,97748.25
2022-10-18T11:27:32.896Z,97745.03
2022-10-18T11:28:53.524Z,97742.41
2022-10-18T11:30:14.768Z,97751.47
2022-10-18T11:31:16.510Z,97745.63
2022-10-18T11:32:38.480Z,97743.75
2022-10-18T11:34:09.363Z,97743.75
2022-10-18T11:35:35.867Z,97742.94
2022-10-18T11:36:58.006Z,97741.91
2022-10-18T11:38:33.202Z,97742.97
2022-10-18T11:39:57.738Z,97734.44
2022-10-18T11:41:05.428Z,97732.31
2022-10-18T11:42:19.859Z,97732.59
2022-10-18T11:44:00.689Z,97732.88
2022-10-18T11:45:08.739Z,97730.44
2022-10-18T11:46:28.308Z,97733.13
2022-10-18T11:47:55.701Z,97726.72
2022-10-18T11:49:18.044Z,97728.34
2022-10-18T11:50:19.864Z,97731.78
2022-10-18T11:51:44.522Z,97719.81
2022-10-18T11:52:55.409Z,97726.22
2022-10-18T11:54:00.109Z,97722.50
2022-10-18T11:55:22.167Z,97728.63
2022-10-18T11:56:27.081Z,97727.00
2022-10-18T11:57:49.607Z,97721.69
2022-10-18T11:58:54.353Z,97725.16
2022-10-18T12:00:16.427Z,97725.16
2022-10-18T12:01:33.243Z,97723.28
2022-10-18T12:02:48.443Z,97731.53
2022-10-18T12:03:56.377Z,97720.63
2022-10-18T12:06:24.337Z,97721.66
2022-10-18T12:07:32.498Z,97720.88
2022-10-18T12:08:46.590Z,97722.22
2022-10-18T12:09:49.925Z,97716.34
2022-10-18T12:11:04.713Z,97717.41
2022-10-18T12:12:28.442Z,97719.00
2022-10-18T12:13:35.427Z,97713.13
2022-10-18T12:14:40.953Z,97707.78
2022-10-18T12:15:42.911Z,97700.09
2022-10-18T12:16:51.584Z,97708.34
2022-10-18T12:17:58.951Z,97703.28
2022-10-18T12:19:03.224Z,97707.81
2022-10-18T12:20:08.223Z,97709.41
2022-10-18T12:21:13.079Z,97701.13
2022-10-18T12:22:19.067Z,97704.06
2022-10-18T12:23:26.444Z,97703.53
2022-10-18T12:24:30.420Z,97701.94
2022-10-18T12:25:37.090Z,97703.28
2022-10-18T12:26:39.092Z,97704.06
2022-10-18T12:27:45.658Z,97695.28
2022-10-18T12:28:57.203Z,97700.34
2022-10-18T12:30:15.027Z,97697.16
2022-10-18T12:31:16.760Z,97698.50
2022-10-18T12:32:30.327Z,97699.28
2022-10-18T12:33:36.260Z,97689.69
2022-10-18T12:34:47.097Z,97688.13
2022-10-18T12:35:48.764Z,97687.03
2022-10-18T12:36:53.406Z,97684.63
2022-10-18T12:38:00.119Z,97691.28
2022-10-18T12:39:03.536Z,97687.03
2022-10-18T12:40:14.225Z,97680.88
2022-10-18T12:41:37.140Z,97688.34
2022-10-18T12:42:43.697Z,97686.75
2022-10-18T12:43:51.247Z,97681.69
2022-10-18T12:45:04.390Z,97686.47
2022-10-18T12:46:13.029Z,97684.34
2022-10-18T12:47:23.364Z,97678.75
2022-10-18T12:48:28.390Z,97680.06
2022-10-18T12:49:30.203Z,97684.63
2022-10-18T12:50:31.987Z,97676.63
2022-10-18T12:51:33.842Z,97682.22
2022-10-18T12:52:37.500Z,97675.28
2022-10-18T12:53:40.075Z,97676.06